FW3135 Weather Reports


time (UTC)temp
C
wind
direction
speed
KPH
gust
KPH
rain 1hr
cm
rain 24hr
cm
rain mn
cm
humidity
%
barometer
mb
20210226093821 12 66 6.4 11.3 0.10 0.71 0.15 66 1026.4
20210226093336 12 68 3.2 9.7 0.10 0.71 0.15 66 1026.2
20210226093027 12 70 6.4 12.9 0.10 0.71 0.15 66 1026.3
20210226092325 12 69 3.2 12.9 0.00 0.61 0.13 66 1026.3
20210226091825 12 24 4.8 14.5 0.00 0.61 0.13 66 1026.3
20210226091318 12 360 4.8 14.5 0.00 0.61 0.13 66 1026.2
20210226090825 12 55 6.4 11.3 0.00 0.61 0.13 66 1026.0
20210226090323 12 53 3.2 12.9 0.00 0.61 0.13 66 1026.0
20210226085826 12 88 4.8 12.9 0.00 0.61 0.13 66 1026.1
20210226085354 12 67 4.8 9.7 0.10 0.61 0.13 67 1025.8
20210226084852 12 37 4.8 9.7 0.10 0.61 0.13 67 1025.7
20210226084333 12 55 4.8 9.7 0.20 0.61 0.13 67 1025.7
20210226083825 12 9 4.8 9.7 0.20 0.61 0.13 67 1025.5
20210226083330 12 16 4.8 11.3 0.20 0.61 0.13 67 1025.5
20210226082839 12 38 4.8 8.0 0.30 0.61 0.13 67 1025.5
20210226082324 12 33 4.8 8.0 0.30 0.61 0.13 67 1025.4
20210226081829 12 28 4.8 8.0 0.30 0.61 0.13 67 1025.4
20210226081326 12 25 3.2 8.0 0.30 0.61 0.13 67 1025.4
20210226080824 12 58 4.8 8.0 0.41 0.61 0.13 67 1025.4
20210226080323 12 38 3.2 6.4 0.41 0.61 0.13 67 1025.2
20210226075822 12 33 3.2 8.0 0.30 0.51 0.13 67 1025.2
20210226075347 12 71 4.8 8.0 0.30 0.51 0.10 67 1025.1
20210226074919 12 38 4.8 8.0 0.30 0.51 0.10 67 1025.1
20210226074318 12 30 3.2 8.0 0.30 0.41 0.08 67 1025.1
20210226073820 12 30 1.6 3.2 0.30 0.41 0.08 67 1025.0
20210226073318 12 30 0.0 1.6 0.30 0.41 0.08 67 1025.1
20210226072905 12 30 0.0 3.2 0.20 0.30 0.05 67 1025.1
20210226072329 12 30 0.0 3.2 0.20 0.30 0.05 67 1025.1
20210226071825 12 30 0.0 4.8 0.30 0.30 0.05 67 1025.0
20210226071328 12 30 1.6 4.8 0.30 0.30 0.05 67 1025.0
20210226070832 12 63 1.6 6.4 0.20 0.20 0.05 68 1024.9
20210226070323 12 36 1.6 8.0 0.20 0.20 0.05 68 1024.8
20210226065828 12 360 4.8 8.0 0.20 0.20 0.05 68 1024.8
20210226065326 12 40 3.2 6.4 0.20 0.20 0.05 68 1024.8
20210226064830 12 40 0.0 0.0 0.20 0.20 0.05 68 1024.9
20210226064331 12 40 0.0 3.2 0.10 0.10 0.03 68 1024.9
20210226063829 12 40 0.0 4.8 0.10 0.10 0.03 68 1024.8
20210226063333 12 40 1.6 6.4 0.10 0.10 0.03 68 1024.7
20210226062945 12 40 3.2 6.4 0.10 0.10 0.03 68 1024.5
20210226062408 12 61 3.2 6.4 0.10 0.10 0.03 68 1024.6
20210226061842 12 67 1.6 6.4 0.00 0.00 0.00 68 1024.4
20210226061314 12 63 3.2 8.0 0.00 0.00 0.00 68 1024.3
20210226060839 12 55 3.2 9.7 0.00 0.00 0.00 68 1024.4
20210226060318 12 65 4.8 9.7 0.00 0.00 0.00 68 1024.5
20210226055816 12 86 4.8 8.0 0.00 0.00 0.00 68 1024.3
20210226055357 12 102 3.2 6.4 0.00 0.00 0.00 68 1024.5
20210226054827 12 105 1.6 4.8 0.00 0.00 0.00 68 1024.5
20210226054315 12 105 1.6 6.4 0.00 0.00 0.00 68 1024.7
20210226053819 12 120 1.6 4.8 0.00 0.00 0.00 68 1024.8
20210226053319 12 120 1.6 6.4 0.00 0.00 0.00 68 1024.8
20210226052904 12 120 3.2 11.3 0.00 0.00 0.00 68 1024.7
20210226052350 12 115 3.2 14.5 0.00 0.00 0.00 68 1024.6
20210226051822 12 360 6.4 19.3 0.00 0.00 0.00 68 1024.4
20210226051320 12 5 6.4 19.3 0.00 0.00 0.00 68 1024.1
20210226050824 12 53 8.0 22.5 0.00 0.00 0.00 68 1024.0
20210226050322 12 48 11.3 22.5 0.00 0.00 0.00 68 1023.9
20210226045827 12 5 12.9 22.5 0.00 0.20 0.00 68 1023.8
20210226045325 12 350 12.9 22.5 0.00 0.20 0.00 68 1023.7
20210226044845 12 28 11.3 25.7 0.00 0.20 0.00 68 1023.8
20210226044329 12 5 11.3 22.5 0.00 0.20 0.00 68 1023.8
20210226043826 12 94 11.3 20.9 0.00 0.20 0.00 68 1023.8
20210226043332 12 348 8.0 22.5 0.00 0.20 0.00 68 1023.9
20210226042916 12 36 6.4 22.5 0.00 0.20 0.00 68 1024.0
20210226042334 12 51 8.0 19.3 0.00 0.20 0.00 68 1024.0
20210226041838 12 9 8.0 20.9 0.00 0.20 0.00 68 1024.0
20210226041331 12 13 8.0 20.9 0.00 0.20 0.00 68 1024.1
20210226040830 12 360 8.0 17.7 0.00 0.20 0.00 68 1024.0
20210226040337 12 66 8.0 19.3 0.00 0.20 0.00 68 1024.2
20210226035813 12 13 9.7 22.5 0.00 0.20 0.00 68 1024.1
20210226035339 12 5 11.3 22.5 0.00 0.20 0.00 68 1024.1
20210226034816 12 360 11.3 25.7 0.00 0.20 0.00 68 1024.0
20210226034315 12 355 14.5 25.7 0.00 0.20 0.00 68 1024.0
20210226033818 12 9 11.3 20.9 0.00 0.20 0.00 68 1024.1
20210226033320 12 42 11.3 20.9 0.00 0.20 0.00 68 1024.3
20210226032944 12 5 12.9 22.5 0.00 0.20 0.00 68 1024.4
20210226032315 12 11 11.3 22.5 0.00 0.20 0.00 67 1024.4
20210226031823 12 11 12.9 20.9 0.00 0.20 0.00 67 1024.6
20210226031318 12 355 9.7 22.5 0.00 0.20 0.00 67 1024.6
20210226030819 12 30 9.7 22.5 0.00 0.20 0.00 67 1024.4
20210226030322 12 35 12.9 20.9 0.00 0.20 0.00 67 1024.5
20210226025825 12 25 12.9 20.9 0.00 0.20 0.00 67 1024.5
20210226025416 12 36 11.3 20.9 0.00 0.20 0.00 67 1024.5
20210226024859 12 22 9.7 20.9 0.00 0.20 0.00 67 1024.5
20210226024314 12 5 12.9 20.9 0.00 0.20 0.00 67 1024.5
20210226023821 12 11 12.9 25.7 0.00 0.20 0.00 67 1024.6
20210226023317 12 33 16.1 25.7 0.00 0.20 0.00 67 1024.7
20210226022859 12 19 11.3 25.7 0.00 0.20 0.00 67 1024.8
20210226022326 12 355 11.3 25.7 0.00 0.20 0.00 67 1025.0
20210226021819 12 34 12.9 25.7 0.00 0.20 0.00 67 1025.1
20210226021328 12 21 9.7 24.1 0.00 0.20 0.00 67 1025.1
20210226020826 12 27 11.3 24.1 0.00 0.20 0.00 67 1025.1
20210226020321 12 5 11.3 19.3 0.00 0.20 0.00 67 1025.1
20210226015826 12 26 11.3 19.3 0.00 0.20 0.00 67 1025.1
20210226015429 12 11 6.4 17.7 0.00 0.20 0.00 67 1025.3
20210226014916 12 350 9.7 19.3 0.00 0.20 0.00 67 1025.3
20210226014338 12 333 9.7 22.5 0.00 0.20 0.00 67 1025.4
20210226013831 12 302 11.3 22.5 0.00 0.20 0.00 67 1025.5
20210226013332 12 355 6.4 19.3 0.00 0.20 0.00 67 1025.5
20210226012922 12 355 9.7 19.3 0.00 0.20 0.00 67 1025.5
20210226012410 12 5 3.2 17.7 0.00 0.20 0.00 67 1025.6
20210226011814 12 326 4.8 16.1 0.00 0.20 0.00 67 1025.7
20210226011332 12 10 6.4 12.9 0.00 0.20 0.00 67 1025.7
20210226010838 12 360 3.2 9.7 0.00 0.20 0.00 67 1025.8
20210226010332 12 5 1.6 9.7 0.00 0.20 0.00 67 1025.7
20210226005833 12 327 3.2 12.9 0.00 0.20 0.00 67 1025.7
20210226005427 12 10 4.8 16.1 0.00 0.20 0.00 67 1025.7
20210226005015 12 326 8.0 16.1 0.00 0.20 0.00 67 1025.7
20210226004338 12 355 6.4 16.1 0.00 0.20 0.00 67 1025.8
20210226003832 12 11 8.0 20.9 0.00 0.20 0.00 67 1025.8
20210226003331 12 27 11.3 19.3 0.00 0.20 0.00 67 1025.9
20210226002906 12 14 8.0 19.3 0.00 0.20 0.00 67 1026.0
20210226002334 12 350 9.7 17.7 0.00 0.20 0.00 67 1026.0
20210226001829 12 338 11.3 17.7 0.00 0.20 0.00 67 1026.1
20210226001337 12 355 8.0 19.3 0.00 0.20 0.00 67 1026.1
20210226000833 12 17 9.7 19.3 0.00 0.20 0.00 67 1026.1
20210226000357 12 24 9.7 17.7 0.00 0.20 0.00 67 1026.1
20210225235832 12 55 8.0 17.7 0.00 0.30 0.05 67 1026.2
20210225235331 12 18 8.0 17.7 0.00 0.30 0.05 67 1026.2
20210225234835 12 5 11.3 17.7 0.00 0.30 0.05 67 1026.3
20210225234330 12 342 6.4 14.5 0.00 0.30 0.05 67 1026.3
20210225233838 12 37 4.8 17.7 0.00 0.30 0.05 67 1026.4
20210225233333 12 35 8.0 17.7 0.00 0.30 0.05 67 1026.5
20210225232948 12 78 8.0 17.7 0.00 0.30 0.05 67 1026.4
20210225232436 12 5 9.7 19.3 0.00 0.30 0.05 67 1026.4
20210225231834 12 355 11.3 19.3 0.00 0.30 0.05 67 1026.4
20210225231330 12 5 8.0 16.1 0.00 0.30 0.05 67 1026.4
20210225230842 12 30 8.0 16.1 0.00 0.30 0.05 67 1026.4
20210225230321 12 5 9.7 19.3 0.00 0.30 0.05 67 1026.5
20210225225838 12 21 11.3 19.3 0.00 0.30 0.05 67 1026.4
20210225225316 12 350 8.0 17.7 0.00 0.30 0.05 67 1026.3
20210225224832 12 32 6.4 17.7 0.00 0.30 0.05 67 1026.4
20210225224337 12 5 6.4 19.3 0.00 0.30 0.05 67 1026.3
20210225223817 12 26 6.4 19.3 0.00 0.30 0.05 67 1026.5
20210225223343 12 346 6.4 22.5 0.00 0.30 0.05 67 1026.5
20210225223111 12 33 11.3 22.5 0.00 0.30 0.05 67 1026.5
20210225222413 12 13 11.3 20.9 0.00 0.30 0.05 66 1026.2
20210225221815 12 33 9.7 20.9 0.00 0.30 0.05 66 1026.1
20210225221331 12 30 12.9 19.3 0.00 0.30 0.05 66 1026.2
20210225220819 12 28 8.0 17.7 0.00 0.30 0.05 66 1026.2
20210225220331 12 42 8.0 22.5 0.00 0.30 0.05 66 1026.3
20210225215822 12 9 11.3 22.5 0.00 0.30 0.05 66 1026.4
20210225215323 12 27 9.7 22.5 0.00 0.30 0.05 66 1026.3
20210225214823 12 16 12.9 22.5 0.00 0.30 0.05 66 1026.4
20210225214321 12 11 11.3 30.6 0.00 0.30 0.05 66 1026.4
20210225213822 12 318 16.1 30.6 0.00 0.30 0.05 66 1026.2
20210225213330 12 360 9.7 25.7 0.00 0.30 0.05 66 1026.3
20210225213054 12 65 11.3 20.9 0.00 0.30 0.05 65 1026.4
20210225212330 12 11 8.0 27.4 0.00 0.30 0.05 65 1026.5
20210225211828 12 15 16.1 27.4 0.00 0.30 0.05 65 1026.6
20210225211327 12 13 11.3 22.5 0.00 0.30 0.05 65 1026.6
20210225210825 12 26 8.0 24.1 0.00 0.30 0.05 65 1026.6
20210225210334 12 355 11.3 24.1 0.00 0.30 0.05 65 1026.6
20210225205830 12 32 14.5 27.4 0.00 0.30 0.05 65 1026.6
20210225205335 12 30 16.1 22.5 0.00 0.30 0.05 64 1026.6
20210225204823 12 13 12.9 22.5 0.00 0.30 0.05 64 1026.7
20210225204342 12 355 11.3 24.1 0.00 0.30 0.05 64 1026.7
20210225203822 12 18 12.9 24.1 0.00 0.30 0.05 64 1026.8
20210225203351 12 38 14.5 24.1 0.00 0.30 0.05 64 1026.8
20210225202953 12 47 11.3 22.5 0.00 0.30 0.05 64 1026.7
20210225202353 12 18 8.0 25.7 0.00 0.30 0.05 64 1026.6
20210225201820 12 23 14.5 25.7 0.00 0.30 0.05 64 1026.5
20210225201320 12 30 9.7 25.7 0.00 0.30 0.05 63 1026.5
20210225200824 12 11 8.0 25.7 0.00 0.30 0.05 63 1026.3
20210225200327 12 348 12.9 27.4 0.00 0.30 0.05 63 1026.4
20210225195826 12 28 9.7 27.4 0.00 0.30 0.05 63 1026.4
20210225195400 12 360 11.3 25.7 0.00 0.30 0.05 62 1026.4
20210225194905 12 23 11.3 24.1 0.00 0.30 0.05 62 1026.5
20210225194330 12 338 12.9 27.4 0.00 0.30 0.05 62 1026.5
20210225193827 13 14 16.1 27.4 0.00 0.30 0.05 62 1026.4
20210225193338 13 49 14.5 25.7 0.00 0.30 0.05 62 1026.2
20210225192918 13 34 14.5 25.7 0.00 0.30 0.05 62 1026.3
20210225192343 13 355 11.3 25.7 0.00 0.30 0.05 62 1026.2
20210225191832 13 26 12.9 25.7 0.00 0.30 0.05 62 1026.2
20210225191334 13 355 12.9 33.8 0.00 0.30 0.05 62 1026.0
20210225190829 13 27 16.1 33.8 0.00 0.30 0.05 62 1025.9
20210225190335 13 34 16.1 27.4 0.00 0.30 0.05 62 1025.9
20210225185833 13 305 12.9 25.7 0.00 0.30 0.05 61 1025.7
20210225185338 13 24 14.5 22.5 0.00 0.30 0.05 61 1025.8
20210225184815 13 17 8.0 35.4 0.00 0.30 0.05 61 1025.7
20210225184332 13 12 9.7 35.4 0.00 0.30 0.05 61 1025.7
20210225183838 13 47 17.7 27.4 0.00 0.30 0.05 60 1025.7
20210225183315 13 344 14.5 29.0 0.00 0.30 0.05 60 1025.6
20210225183023 13 61 14.5 30.6 0.00 0.30 0.05 60 1025.6
20210225182458 13 348 12.9 30.6 0.00 0.30 0.05 60 1025.6
20210225181817 13 36 11.3 37.0 0.00 0.30 0.05 60 1025.7
20210225181316 13 5 16.1 25.7 0.00 0.30 0.05 59 1025.6
20210225180823 14 314 16.1 25.7 0.00 0.30 0.05 59 1025.5
20210225180318 14 41 14.5 30.6 0.00 0.30 0.05 59 1025.5
20210225175818 14 11 14.5 30.6 0.00 0.30 0.05 59 1025.6
20210225175331 14 26 16.1 30.6 0.00 0.30 0.05 58 1025.6
20210225174837 14 360 14.5 32.2 0.00 0.30 0.05 58 1025.5
20210225174318 15 14 17.7 32.2 0.00 0.30 0.05 58 1025.5
20210225173818 15 350 11.3 30.6 0.00 0.30 0.05 57 1025.4
20210225173321 15 5 14.5 30.6 0.00 0.30 0.05 56 1025.3
20210225172855 15 350 12.9 30.6 0.00 0.30 0.05 56 1025.3
20210225172321 15 340 14.5 27.4 0.00 0.30 0.05 56 1025.3
20210225171816 15 19 16.1 29.0 0.00 0.30 0.05 57 1025.3
20210225171321 15 348 17.7 29.0 0.00 0.30 0.05 56 1025.2
20210225170832 15 331 11.3 29.0 0.00 0.30 0.05 56 1025.3
20210225170317 15 17 11.3 27.4 0.00 0.30 0.05 57 1025.2
20210225165821 15 304 12.9 27.4 0.00 0.30 0.05 57 1025.2
20210225165331 15 355 11.3 27.4 0.00 0.30 0.05 57 1025.2
20210225164834 15 336 14.5 29.0 0.00 0.30 0.05 57 1025.2
20210225164327 15 29 17.7 29.0 0.00 0.30 0.05 56 1025.3
20210225163821 16 17 12.9 27.4 0.00 0.30 0.05 55 1025.1
20210225163327 15 10 14.5 29.0 0.00 0.30 0.05 54 1025.2
20210225162917 16 51 19.3 29.0 0.00 0.30 0.05 54 1025.2
20210225162337 16 16 17.7 27.4 0.00 0.30 0.05 54 1025.1
20210225161831 16 9 9.7 29.0 0.00 0.30 0.05 55 1025.1
20210225161329 15 37 12.9 29.0 0.00 0.30 0.05 55 1025.0
20210225160831 16 317 16.1 29.0 0.00 0.30 0.05 55 1025.0
20210225160332 16 43 11.3 24.1 0.00 0.30 0.05 55 1025.1
20210225155839 16 5 14.5 24.1 0.00 0.30 0.05 55 1025.1
20210225155312 16 331 16.1 24.1 0.00 0.30 0.05 53 1025.1
20210225154835 16 355 14.5 22.5 0.00 0.30 0.05 52 1025.2
20210225154336 16 34 9.7 20.9 0.00 0.30 0.05 54 1025.0
20210225153814 16 11 9.7 25.7 0.00 0.30 0.05 54 1025.1
20210225153313 16 37 9.7 25.7 0.00 0.30 0.05 56 1025.1
20210225152925 16 346 14.5 24.1 0.00 0.30 0.05 54 1025.1
20210225152348 16 27 9.7 29.0 0.00 0.30 0.05 54 1025.1
20210225151815 16 5 12.9 29.0 0.00 0.30 0.05 54 1025.2
20210225151338 16 47 14.5 24.1 0.00 0.30 0.05 54 1025.2
20210225150820 16 344 14.5 24.1 0.00 0.30 0.05 52 1025.3
20210225150316 16 348 9.7 25.7 0.00 0.30 0.05 53 1025.3
20210225145821 16 29 16.1 27.4 0.00 0.30 0.05 53 1025.3
20210225145321 16 17 16.1 27.4 0.00 0.30 0.05 54 1025.3
20210225144825 16 321 8.0 27.4 0.00 0.30 0.05 54 1025.3
20210225144322 16 331 14.5 27.4 0.00 0.30 0.05 54 1025.3
20210225143823 16 36 12.9 25.7 0.00 0.30 0.05 55 1025.4
20210225143326 16 42 14.5 29.0 0.00 0.30 0.05 54 1025.4
20210225142925 15 5 16.1 29.0 0.00 0.30 0.05 54 1025.5
20210225142326 15 339 14.5 38.6 0.00 0.30 0.05 54 1025.4
20210225141828 16 40 19.3 38.6 0.00 0.30 0.05 53 1025.5
20210225141324 16 355 11.3 25.7 0.00 0.30 0.05 55 1025.4
20210225140824 15 341 14.5 33.8 0.00 0.30 0.05 55 1025.5
20210225140330 15 331 17.7 33.8 0.00 0.30 0.05 54 1025.5
20210225135826 15 56 14.5 29.0 0.00 0.30 0.05 55 1025.7
20210225135331 15 321 11.3 29.0 0.00 0.30 0.05 54 1025.7
20210225134829 15 344 16.1 29.0 0.00 0.30 0.05 53 1025.7
20210225134329 15 12 12.9 27.4 0.00 0.30 0.05 54 1025.8
20210225133833 16 38 16.1 29.0 0.00 0.30 0.05 53 1026.0
20210225133334 15 91 16.1 33.8 0.00 0.30 0.05 52 1025.9
20210225132954 15 39 17.7 29.0 0.00 0.30 0.05 53 1026.0
20210225132332 15 5 11.3 25.7 0.00 0.30 0.05 53 1026.1
20210225131823 16 315 12.9 37.0 0.00 0.30 0.05 52 1026.2
20210225131331 15 346 11.3 37.0 0.00 0.30 0.05 52 1026.2
20210225130825 15 5 16.1 32.2 0.00 0.30 0.05 51 1026.4
20210225130327 16 338 16.1 32.2 0.00 0.30 0.05 53 1026.4
20210225125827 15 48 17.7 32.2 0.00 0.30 0.05 51 1026.2
20210225125327 15 81 12.9 29.0 0.00 0.30 0.05 52 1026.5
20210225124832 15 355 12.9 29.0 0.00 0.30 0.05 52 1026.6
20210225124335 15 48 12.9 25.7 0.00 0.30 0.05 52 1026.6
20210225123827 15 350 16.1 24.1 0.00 0.30 0.05 52 1026.7
20210225123333 15 30 14.5 25.7 0.00 0.30 0.05 53 1026.7
20210225122935 15 19 12.9 25.7 0.00 0.30 0.05 53 1026.7
20210225122333 15 53 11.3 24.1 0.00 0.30 0.05 53 1026.9
20210225121817 15 5 9.7 24.1 0.00 0.30 0.05 55 1027.0
20210225121331 15 22 11.3 17.7 0.00 0.30 0.05 55 1027.0
20210225120836 15 355 4.8 24.1 0.00 0.30 0.05 56 1027.1
20210225120317 15 61 11.3 22.5 0.00 0.30 0.05 55 1027.1
20210225115842 15 33 8.0 29.0 0.00 0.30 0.05 56 1027.2
20210225115317 15 355 19.3 29.0 0.00 0.30 0.05 55 1027.2
20210225114818 15 18 8.0 20.9 0.00 0.30 0.05 56 1027.3
20210225114315 15 355 8.0 22.5 0.00 0.30 0.05 57 1027.4
20210225113820 15 60 8.0 33.8 0.00 0.30 0.05 57 1027.4
20210225113323 15 344 14.5 33.8 0.00 0.30 0.05 55 1027.5
20210225112952 15 29 12.9 24.1 0.00 0.30 0.05 56 1027.5
20210225112344 15 70 6.4 20.9 0.00 0.30 0.05 56 1027.4
20210225111820 15 312 8.0 24.1 0.00 0.30 0.05 56 1027.5
20210225111318 15 11 8.0 24.1 0.00 0.30 0.05 57 1027.5
20210225110824 15 355 9.7 17.7 0.00 0.30 0.05 57 1027.5
20210225110323 15 344 6.4 19.3 0.00 0.30 0.05 58 1027.6
20210225105848 14 47 9.7 25.7 0.00 0.30 0.05 57 1027.5
20210225105325 14 30 14.5 25.7 0.00 0.30 0.05 57 1027.5
20210225104826 15 5 9.7 24.1 0.00 0.30 0.05 57 1027.6
20210225104331 15 19 14.5 25.7 0.00 0.30 0.05 57 1027.6
20210225103828 15 343 12.9 25.7 0.00 0.30 0.05 58 1027.6
20210225103332 14 333 9.7 20.9 0.00 0.30 0.05 58 1027.6
20210225103033 14 9 8.0 17.7 0.00 0.30 0.05 58 1027.5
20210225102449 14 320 4.8 22.5 0.00 0.30 0.05 59 1027.6
20210225101835 13 20 11.3 22.5 0.00 0.30 0.05 59 1027.7
20210225101314 13 345 11.3 24.1 0.00 0.30 0.05 59 1027.8
20210225100834 13 307 11.3 32.2 0.00 0.30 0.05 59 1027.8
20210225100336 13 12 11.3 32.2 0.00 0.30 0.05 60 1027.8
20210225095815 13 5 11.3 17.7 0.00 0.30 0.05 60 1027.8
20210225095412 13 23 6.4 17.7 0.00 0.30 0.05 61 1027.7
20210225094838 13 78 8.0 17.7 0.00 0.30 0.05 61 1027.7
20210225094316 13 38 11.3 19.3 0.00 0.30 0.05 62 1027.7